createdAt,value
2017-07-12T00:03:19.286Z,99.99
2017-07-12T00:08:15.056Z,99.99
2017-07-12T00:13:10.846Z,99.99
2017-07-12T00:18:06.720Z,99.99
2017-07-12T00:23:02.669Z,99.99
2017-07-12T00:27:58.384Z,99.99
2017-07-12T00:32:54.694Z,99.99
2017-07-12T00:37:51.603Z,99.99
2017-07-12T00:42:47.002Z,99.99
2017-07-12T00:47:43.308Z,99.99
2017-07-12T00:52:40.441Z,99.99
2017-07-12T00:57:35.919Z,99.99
2017-07-12T01:02:32.083Z,99.99
2017-07-12T01:07:27.756Z,99.99
2017-07-12T01:12:23.621Z,99.99
2017-07-12T01:17:19.530Z,99.99
2017-07-12T01:22:15.352Z,99.99
2017-07-12T01:27:10.976Z,99.99
2017-07-12T01:32:06.411Z,99.99
2017-07-12T01:37:03.840Z,99.99
2017-07-12T01:42:00.414Z,99.99
2017-07-12T01:46:55.897Z,99.99
2017-07-12T01:51:51.605Z,99.99
2017-07-12T01:56:47.622Z,99.99
2017-07-12T02:01:43.403Z,99.99
2017-07-12T02:06:39.379Z,99.99
2017-07-12T02:11:36.228Z,99.99
2017-07-12T02:16:33.012Z,99.99
2017-07-12T02:21:28.748Z,99.99
2017-07-12T02:26:24.493Z,99.99
2017-07-12T02:31:20.371Z,99.99
2017-07-12T02:36:16.224Z,99.99
2017-07-12T02:41:12.955Z,99.99
2017-07-12T02:46:09.378Z,99.99
2017-07-12T02:51:04.935Z,99.99
2017-07-12T02:56:00.982Z,99.99
2017-07-12T03:00:56.831Z,99.99
2017-07-12T03:05:53.911Z,99.99
2017-07-12T03:10:49.448Z,99.99
2017-07-12T03:15:45.328Z,99.99
2017-07-12T03:20:42.085Z,99.99
2017-07-12T03:25:38.663Z,99.99
2017-07-12T03:30:35.319Z,99.99
2017-07-12T03:35:30.871Z,99.99
2017-07-12T03:40:26.548Z,99.99
2017-07-12T03:45:23.800Z,99.99
2017-07-12T03:50:19.426Z,99.99
2017-07-12T03:55:16.235Z,99.99
2017-07-12T04:00:13.279Z,99.99
2017-07-12T04:05:11.014Z,99.99
2017-07-12T04:10:06.209Z,99.99
2017-07-12T04:15:03.915Z,99.99
2017-07-12T04:19:59.274Z,99.99
2017-07-12T04:24:55.363Z,99.99
2017-07-12T04:29:51.155Z,99.99
2017-07-12T04:34:48.338Z,99.99
2017-07-12T04:39:45.082Z,99.99
2017-07-12T04:44:40.877Z,99.99
2017-07-12T04:49:37.752Z,99.99
2017-07-12T04:54:33.497Z,99.99
2017-07-12T04:59:29.427Z,99.99
2017-07-12T05:04:25.203Z,99.99
2017-07-12T05:09:21.092Z,99.99
2017-07-12T05:14:17.247Z,99.99
2017-07-12T05:19:13.387Z,99.99
2017-07-12T05:24:09.168Z,99.99
2017-07-12T05:29:04.966Z,99.99
2017-07-12T05:34:01.075Z,99.99
2017-07-12T05:38:57.085Z,99.99
2017-07-12T05:43:53.002Z,99.99
2017-07-12T05:48:48.902Z,99.99
2017-07-12T05:53:45.844Z,99.99
2017-07-12T05:58:41.028Z,99.99
2017-07-12T06:03:37.268Z,99.99
2017-07-12T06:08:34.207Z,99.99
2017-07-12T06:13:29.935Z,99.99
2017-07-12T06:18:25.929Z,99.99
2017-07-12T06:23:23.098Z,99.99
2017-07-12T06:28:18.632Z,99.99
2017-07-12T06:33:14.797Z,99.99
2017-07-12T06:38:10.869Z,99.99
2017-07-12T06:43:06.909Z,99.99
2017-07-12T06:48:03.481Z,99.99
2017-07-12T06:53:00.066Z,99.99
2017-07-12T06:57:55.803Z,99.99
2017-07-12T07:02:51.939Z,99.99
2017-07-12T07:07:47.769Z,99.99
2017-07-12T07:12:43.480Z,99.99
2017-07-12T07:17:39.073Z,99.99
2017-07-12T07:22:35.172Z,99.99
2017-07-12T07:27:30.910Z,99.99
2017-07-12T07:32:27.460Z,99.99
2017-07-12T07:37:24.281Z,99.99
2017-07-12T07:42:20.285Z,99.99
2017-07-12T07:47:16.226Z,99.99
2017-07-12T07:52:12.163Z,99.99
2017-07-12T07:57:09.047Z,99.99
2017-07-12T08:02:04.491Z,99.99
2017-07-12T08:07:00.657Z,99.99
2017-07-12T08:11:57.285Z,99.99
2017-07-12T08:16:52.846Z,99.99
2017-07-12T08:21:49.586Z,99.99
2017-07-12T08:26:45.171Z,99.99
2017-07-12T08:31:41.073Z,99.99
2017-07-12T08:36:37.443Z,99.99
2017-07-12T08:41:34.512Z,99.99
2017-07-12T08:46:30.755Z,99.99
2017-07-12T08:51:26.729Z,99.99
2017-07-12T08:56:23.474Z,99.99
2017-07-12T09:01:18.942Z,99.99
2017-07-12T09:06:14.783Z,99.99
2017-07-12T09:11:11.661Z,99.99
2017-07-12T09:16:08.704Z,99.99
2017-07-12T09:21:04.578Z,99.99
2017-07-12T09:35:52.269Z,99.99
2017-07-12T09:40:48.434Z,99.99
2017-07-12T09:45:44.457Z,99.99
2017-07-12T09:50:41.505Z,99.99
2017-07-12T09:55:37.245Z,99.99
2017-07-12T10:00:33.316Z,99.99
2017-07-12T10:05:30.273Z,99.99
2017-07-12T10:10:25.957Z,99.99
2017-07-12T10:15:22.506Z,99.99
2017-07-12T10:20:19.659Z,99.99
2017-07-12T10:25:16.230Z,99.99
2017-07-12T10:30:13.231Z,99.99
2017-07-12T10:35:08.666Z,99.99
2017-07-12T10:40:04.297Z,99.99
2017-07-12T10:44:59.854Z,99.99
2017-07-12T10:49:55.514Z,99.99
2017-07-12T10:54:52.092Z,99.99
2017-07-12T10:59:48.589Z,99.99
2017-07-12T11:04:43.903Z,99.99
2017-07-12T11:09:40.031Z,99.99
2017-07-12T11:14:35.969Z,99.99
2017-07-12T11:19:32.284Z,99.99
2017-07-12T11:24:27.896Z,99.99
2017-07-12T11:29:23.925Z,99.99
2017-07-12T11:34:19.877Z,99.99
2017-07-12T11:39:15.613Z,99.99
2017-07-12T11:44:11.582Z,99.99
2017-07-12T11:49:08.397Z,99.99
2017-07-12T11:54:03.919Z,99.99
2017-07-12T11:59:00.088Z,99.99
2017-07-12T12:03:56.374Z,99.99
2017-07-12T12:08:52.146Z,99.99
2017-07-12T12:13:48.527Z,99.99
2017-07-12T12:18:45.171Z,99.99
2017-07-12T12:23:40.906Z,99.99
2017-07-12T12:28:36.916Z,99.99
2017-07-12T12:33:33.762Z,99.99
2017-07-12T12:38:30.840Z,99.99
2017-07-12T12:43:26.697Z,99.99
2017-07-12T12:48:24.815Z,99.99
2017-07-12T12:53:21.608Z,99.99
2017-07-12T12:58:17.776Z,99.99
2017-07-12T13:03:14.628Z,99.99
2017-07-12T13:08:16.931Z,99.99
2017-07-12T13:13:12.970Z,99.99
2017-07-12T13:18:10.025Z,99.99
2017-07-12T13:23:05.529Z,99.99
2017-07-12T13:28:02.550Z,99.99
2017-07-12T13:32:58.189Z,99.99
2017-07-12T13:37:54.147Z,99.99
2017-07-12T13:42:51.400Z,99.99
2017-07-12T13:47:47.494Z,99.99
2017-07-12T13:52:45.798Z,99.99
2017-07-12T13:57:42.413Z,99.99
2017-07-12T14:02:39.238Z,99.99
2017-07-12T14:07:35.507Z,99.99
2017-07-12T14:12:31.821Z,99.99
2017-07-12T14:17:28.786Z,99.99
2017-07-12T14:22:25.962Z,99.99
2017-07-12T14:27:21.887Z,99.99
2017-07-12T14:32:17.628Z,99.99
2017-07-12T14:37:15.507Z,99.99
2017-07-12T14:42:10.525Z,99.99
2017-07-12T14:47:06.030Z,99.99
2017-07-12T14:52:01.584Z,99.99
2017-07-12T14:56:57.756Z,99.99
2017-07-12T15:01:53.937Z,99.99
2017-07-12T15:06:49.517Z,99.99
2017-07-12T15:11:46.413Z,99.99
2017-07-12T15:16:43.737Z,99.99
2017-07-12T15:21:39.009Z,99.99
2017-07-12T15:26:34.806Z,99.99
2017-07-12T15:31:31.562Z,99.99
2017-07-12T15:36:27.151Z,99.99
2017-07-12T15:41:23.260Z,99.99
2017-07-12T15:46:19.811Z,99.99
2017-07-12T15:51:16.939Z,99.99
2017-07-12T15:56:12.853Z,99.99
2017-07-12T16:01:08.727Z,99.99
2017-07-12T16:06:04.567Z,99.99
2017-07-12T16:11:00.158Z,99.99
2017-07-12T16:15:55.568Z,99.99
2017-07-12T16:20:51.282Z,99.99
2017-07-12T16:25:47.157Z,99.99
2017-07-12T16:30:44.482Z,99.99
2017-07-12T16:35:40.156Z,99.87
2017-07-12T16:40:36.081Z,98.72
2017-07-12T16:45:33.740Z,97.71
2017-07-12T16:50:29.884Z,95.41
2017-07-12T16:55:26.855Z,93.40
2017-07-12T17:00:23.573Z,92.91
2017-07-12T17:05:19.192Z,91.19
2017-07-12T17:10:16.243Z,88.12
2017-07-12T17:15:11.637Z,88.02
2017-07-12T17:20:07.459Z,86.58
2017-07-12T17:25:04.316Z,88.08
2017-07-12T17:29:59.816Z,86.88
2017-07-12T17:34:55.788Z,86.58
2017-07-12T17:39:52.599Z,84.95
2017-07-12T17:44:48.493Z,85.05
2017-07-12T17:49:45.532Z,85.34
2017-07-12T17:54:40.837Z,84.00
2017-07-12T17:59:36.730Z,83.04
2017-07-12T18:04:32.820Z,82.46
2017-07-12T18:09:28.534Z,83.58
2017-07-12T18:14:24.555Z,83.48
2017-07-12T18:19:20.985Z,82.90
2017-07-12T18:24:17.333Z,83.63
2017-07-12T18:29:13.318Z,83.92
2017-07-12T18:34:15.494Z,84.11
2017-07-12T18:39:11.238Z,84.39
2017-07-12T18:44:06.979Z,84.88
2017-07-12T18:49:02.951Z,84.20
2017-07-12T18:53:58.952Z,85.21
2017-07-12T18:58:54.762Z,85.83
2017-07-12T19:03:51.326Z,86.12
2017-07-12T19:08:46.824Z,86.27
2017-07-12T19:13:43.884Z,86.17
2017-07-12T19:18:40.209Z,86.74
2017-07-12T19:23:36.012Z,87.51
2017-07-12T19:28:32.147Z,86.46
2017-07-12T19:33:27.873Z,87.37
2017-07-12T19:38:23.853Z,87.47
2017-07-12T19:43:20.718Z,87.66
2017-07-12T19:48:16.516Z,88.43
2017-07-12T19:53:14.485Z,89.19
2017-07-12T19:58:09.896Z,90.05
2017-07-12T20:03:05.677Z,89.05
2017-07-12T20:08:01.643Z,89.91
2017-07-12T20:12:57.384Z,89.81
2017-07-12T20:17:53.315Z,91.35
2017-07-12T20:22:49.209Z,91.06
2017-07-12T20:27:45.404Z,91.16
2017-07-12T20:32:42.191Z,91.83
2017-07-12T20:37:38.821Z,90.82
2017-07-12T20:42:35.108Z,91.39
2017-07-12T20:47:30.836Z,91.02
2017-07-12T20:52:26.933Z,91.02
2017-07-12T20:57:22.800Z,91.16
2017-07-12T21:02:18.601Z,91.02
2017-07-12T21:07:14.507Z,92.07
2017-07-12T21:12:10.228Z,91.83
2017-07-12T21:17:06.018Z,91.39
2017-07-12T21:22:01.753Z,92.64
2017-07-12T21:26:57.232Z,93.12
2017-07-12T21:31:52.980Z,93.40
2017-07-12T21:36:48.953Z,94.36
2017-07-12T21:41:45.006Z,94.17
2017-07-12T21:46:41.077Z,94.84
2017-07-12T21:51:37.910Z,95.32
2017-07-12T21:56:33.373Z,95.12
2017-07-12T22:01:30.047Z,95.22
2017-07-12T22:06:26.746Z,95.36
2017-07-12T22:11:23.089Z,95.46
2017-07-12T22:16:18.381Z,95.56
2017-07-12T22:21:15.365Z,96.03
2017-07-12T22:26:11.834Z,96.51
2017-07-12T22:31:07.279Z,96.80
2017-07-12T22:36:03.406Z,96.61
2017-07-12T22:40:59.310Z,97.61
2017-07-12T22:45:55.263Z,97.52
2017-07-12T22:50:50.805Z,97.75
2017-07-12T22:55:46.997Z,97.71
2017-07-12T23:00:43.530Z,98.66
2017-07-12T23:05:39.083Z,98.94
2017-07-12T23:10:35.168Z,98.66
2017-07-12T23:15:30.852Z,99.80
2017-07-12T23:20:26.841Z,99.71
2017-07-12T23:25:25.024Z,99.99
2017-07-12T23:30:20.402Z,99.62
2017-07-12T23:35:16.368Z,99.62
2017-07-12T23:40:12.340Z,99.33
2017-07-12T23:45:08.148Z,99.04
2017-07-12T23:50:04.716Z,99.04
2017-07-12T23:55:01.503Z,99.33
2017-07-12T23:59:57.091Z,99.99
